sensor_id;sensor_type;location;lat;lon;timestamp;P1;durP1;ratioP1;P2;durP2;ratioP2
17253;SDS011;32542;52.832;13.816;2023-06-22T00:01:23;9.95;;;8.93;;
17253;SDS011;32542;52.832;13.816;2023-06-22T00:04:26;10.13;;;9.10;;
17253;SDS011;32542;52.832;13.816;2023-06-22T00:07:29;10.63;;;8.73;;
17253;SDS011;32542;52.832;13.816;2023-06-22T00:10:32;12.55;;;9.38;;
17253;SDS011;32542;52.832;13.816;2023-06-22T00:13:35;10.95;;;8.73;;
17253;SDS011;32542;52.832;13.816;2023-06-22T00:16:40;15.88;;;8.43;;
17253;SDS011;32542;52.832;13.816;2023-06-22T00:19:46;10.95;;;8.90;;
17253;SDS011;32542;52.832;13.816;2023-06-22T00:22:55;9.63;;;8.63;;
17253;SDS011;32542;52.832;13.816;2023-06-22T00:25:58;9.93;;;8.82;;
17253;SDS011;32542;52.832;13.816;2023-06-22T00:29:01;10.50;;;8.57;;
17253;SDS011;32542;52.832;13.816;2023-06-22T00:32:06;10.90;;;8.43;;
17253;SDS011;32542;52.832;13.816;2023-06-22T00:35:09;11.32;;;8.30;;
17253;SDS011;32542;52.832;13.816;2023-06-22T00:38:13;10.82;;;8.65;;
17253;SDS011;32542;52.832;13.816;2023-06-22T00:41:16;12.95;;;8.80;;
17253;SDS011;32542;52.832;13.816;2023-06-22T00:44:19;9.73;;;8.30;;
17253;SDS011;32542;52.832;13.816;2023-06-22T00:47:23;10.50;;;8.30;;
17253;SDS011;32542;52.832;13.816;2023-06-22T00:50:27;10.32;;;8.25;;
17253;SDS011;32542;52.832;13.816;2023-06-22T00:53:34;11.75;;;8.40;;
17253;SDS011;32542;52.832;13.816;2023-06-22T00:56:39;9.48;;;8.07;;
17253;SDS011;32542;52.832;13.816;2023-06-22T00:59:43;15.23;;;8.73;;
17253;SDS011;32542;52.832;13.816;2023-06-22T01:02:48;10.98;;;8.77;;
17253;SDS011;32542;52.832;13.816;2023-06-22T01:05:53;10.93;;;8.20;;
17253;SDS011;32542;52.832;13.816;2023-06-22T01:09:03;13.27;;;8.20;;
17253;SDS011;32542;52.832;13.816;2023-06-22T01:12:12;9.60;;;8.02;;
17253;SDS011;32542;52.832;13.816;2023-06-22T01:15:18;9.98;;;7.88;;
17253;SDS011;32542;52.832;13.816;2023-06-22T01:18:27;13.73;;;8.48;;
17253;SDS011;32542;52.832;13.816;2023-06-22T01:21:34;13.35;;;8.00;;
17253;SDS011;32542;52.832;13.816;2023-06-22T01:24:41;8.93;;;8.02;;
17253;SDS011;32542;52.832;13.816;2023-06-22T01:28:02;10.15;;;7.60;;
17253;SDS011;32542;52.832;13.816;2023-06-22T01:31:18;9.20;;;7.88;;
17253;SDS011;32542;52.832;13.816;2023-06-22T01:34:23;9.38;;;7.93;;
17253;SDS011;32542;52.832;13.816;2023-06-22T01:37:27;12.20;;;8.30;;
17253;SDS011;32542;52.832;13.816;2023-06-22T01:40:33;9.90;;;7.85;;
17253;SDS011;32542;52.832;13.816;2023-06-22T01:43:37;8.63;;;7.72;;
17253;SDS011;32542;52.832;13.816;2023-06-22T01:46:42;11.25;;;7.95;;
17253;SDS011;32542;52.832;13.816;2023-06-22T01:49:48;10.93;;;7.70;;
17253;SDS011;32542;52.832;13.816;2023-06-22T01:52:54;12.63;;;7.53;;
17253;SDS011;32542;52.832;13.816;2023-06-22T01:56:00;8.70;;;7.80;;
17253;SDS011;32542;52.832;13.816;2023-06-22T01:59:04;8.63;;;7.03;;
17253;SDS011;32542;52.832;13.816;2023-06-22T02:02:16;8.00;;;7.20;;
17253;SDS011;32542;52.832;13.816;2023-06-22T02:05:22;11.18;;;7.93;;
17253;SDS011;32542;52.832;13.816;2023-06-22T02:08:28;10.02;;;7.40;;
17253;SDS011;32542;52.832;13.816;2023-06-22T02:11:34;9.50;;;7.47;;
17253;SDS011;32542;52.832;13.816;2023-06-22T02:14:38;8.50;;;7.45;;
17253;SDS011;32542;52.832;13.816;2023-06-22T02:17:44;9.90;;;7.30;;
17253;SDS011;32542;52.832;13.816;2023-06-22T02:20:47;8.85;;;7.45;;
17253;SDS011;32542;52.832;13.816;2023-06-22T02:23:50;11.00;;;6.90;;
17253;SDS011;32542;52.832;13.816;2023-06-22T02:26:53;7.85;;;7.05;;
17253;SDS011;32542;52.832;13.816;2023-06-22T02:29:56;9.32;;;6.80;;
17253;SDS011;32542;52.832;13.816;2023-06-22T02:33:00;7.65;;;6.75;;
17253;SDS011;32542;52.832;13.816;2023-06-22T02:36:03;8.55;;;6.95;;
17253;SDS011;32542;52.832;13.816;2023-06-22T02:39:10;8.32;;;6.63;;
17253;SDS011;32542;52.832;13.816;2023-06-22T02:42:13;9.40;;;7.03;;
17253;SDS011;32542;52.832;13.816;2023-06-22T02:45:16;8.55;;;7.03;;
17253;SDS011;32542;52.832;13.816;2023-06-22T02:48:21;8.25;;;6.60;;
17253;SDS011;32542;52.832;13.816;2023-06-22T02:51:24;9.27;;;6.97;;
17253;SDS011;32542;52.832;13.816;2023-06-22T02:54:27;7.68;;;6.88;;
17253;SDS011;32542;52.832;13.816;2023-06-22T02:57:30;8.10;;;7.13;;
17253;SDS011;32542;52.832;13.816;2023-06-22T03:00:33;7.47;;;6.40;;
17253;SDS011;32542;52.832;13.816;2023-06-22T03:03:37;9.00;;;6.57;;
17253;SDS011;32542;52.832;13.816;2023-06-22T03:06:40;8.98;;;6.50;;
17253;SDS011;32542;52.832;13.816;2023-06-22T03:09:43;8.80;;;6.47;;
17253;SDS011;32542;52.832;13.816;2023-06-22T03:12:46;7.82;;;6.38;;
17253;SDS011;32542;52.832;13.816;2023-06-22T03:15:49;8.93;;;6.45;;
17253;SDS011;32542;52.832;13.816;2023-06-22T03:18:54;7.07;;;6.38;;
17253;SDS011;32542;52.832;13.816;2023-06-22T03:21:57;10.30;;;6.30;;
17253;SDS011;32542;52.832;13.816;2023-06-22T03:25:00;7.30;;;6.50;;
17253;SDS011;32542;52.832;13.816;2023-06-22T03:28:03;10.70;;;6.65;;
17253;SDS011;32542;52.832;13.816;2023-06-22T03:31:06;8.07;;;6.47;;
17253;SDS011;32542;52.832;13.816;2023-06-22T03:34:14;8.73;;;6.32;;
17253;SDS011;32542;52.832;13.816;2023-06-22T03:37:17;6.68;;;5.95;;
17253;SDS011;32542;52.832;13.816;2023-06-22T03:40:20;6.95;;;6.25;;
17253;SDS011;32542;52.832;13.816;2023-06-22T03:43:24;7.20;;;6.43;;
17253;SDS011;32542;52.832;13.816;2023-06-22T03:46:27;7.72;;;5.95;;
17253;SDS011;32542;52.832;13.816;2023-06-22T03:49:31;6.95;;;6.25;;
17253;SDS011;32542;52.832;13.816;2023-06-22T03:52:35;7.25;;;6.55;;
17253;SDS011;32542;52.832;13.816;2023-06-22T03:55:40;6.82;;;5.78;;
17253;SDS011;32542;52.832;13.816;2023-06-22T03:58:50;7.63;;;6.30;;
17253;SDS011;32542;52.832;13.816;2023-06-22T04:01:52;7.18;;;5.82;;
17253;SDS011;32542;52.832;13.816;2023-06-22T04:04:57;8.38;;;6.40;;
17253;SDS011;32542;52.832;13.816;2023-06-22T04:08:04;7.07;;;6.10;;
17253;SDS011;32542;52.832;13.816;2023-06-22T04:11:07;7.70;;;6.88;;
17253;SDS011;32542;52.832;13.816;2023-06-22T04:14:10;8.38;;;6.43;;
17253;SDS011;32542;52.832;13.816;2023-06-22T04:17:13;6.70;;;5.88;;
17253;SDS011;32542;52.832;13.816;2023-06-22T04:20:17;8.35;;;6.30;;
17253;SDS011;32542;52.832;13.816;2023-06-22T04:23:20;7.80;;;6.85;;
17253;SDS011;32542;52.832;13.816;2023-06-22T04:26:23;7.97;;;6.85;;
17253;SDS011;32542;52.832;13.816;2023-06-22T04:29:26;8.55;;;6.70;;
17253;SDS011;32542;52.832;13.816;2023-06-22T04:32:31;8.00;;;7.05;;
17253;SDS011;32542;52.832;13.816;2023-06-22T04:35:35;8.32;;;6.78;;
17253;SDS011;32542;52.832;13.816;2023-06-22T04:38:38;9.18;;;6.85;;
17253;SDS011;32542;52.832;13.816;2023-06-22T04:41:41;7.68;;;6.10;;
17253;SDS011;32542;52.832;13.816;2023-06-22T04:44:44;8.52;;;6.15;;
17253;SDS011;32542;52.832;13.816;2023-06-22T04:47:47;7.68;;;6.70;;
17253;SDS011;32542;52.832;13.816;2023-06-22T04:50:52;10.43;;;7.07;;
17253;SDS011;32542;52.832;13.816;2023-06-22T04:53:54;11.00;;;7.20;;
17253;SDS011;32542;52.832;13.816;2023-06-22T04:57:02;8.73;;;7.30;;
17253;SDS011;32542;52.832;13.816;2023-06-22T05:00:11;7.55;;;6.70;;
17253;SDS011;32542;52.832;13.816;2023-06-22T05:03:18;8.55;;;7.10;;
17253;SDS011;32542;52.832;13.816;2023-06-22T05:06:23;9.90;;;6.80;;
17253;SDS011;32542;52.832;13.816;2023-06-22T05:09:26;7.60;;;6.80;;
17253;SDS011;32542;52.832;13.816;2023-06-22T05:12:30;8.43;;;6.75;;
17253;SDS011;32542;52.832;13.816;2023-06-22T05:15:33;7.38;;;6.63;;
17253;SDS011;32542;52.832;13.816;2023-06-22T05:18:41;9.98;;;6.95;;
17253;SDS011;32542;52.832;13.816;2023-06-22T05:21:46;7.82;;;6.63;;
17253;SDS011;32542;52.832;13.816;2023-06-22T05:24:49;8.75;;;7.10;;
17253;SDS011;32542;52.832;13.816;2023-06-22T05:27:52;7.65;;;6.28;;
17253;SDS011;32542;52.832;13.816;2023-06-22T05:30:54;8.35;;;6.63;;
17253;SDS011;32542;52.832;13.816;2023-06-22T05:33:58;9.35;;;6.50;;
17253;SDS011;32542;52.832;13.816;2023-06-22T05:37:03;10.00;;;6.45;;
17253;SDS011;32542;52.832;13.816;2023-06-22T05:40:07;7.53;;;6.45;;
17253;SDS011;32542;52.832;13.816;2023-06-22T05:43:11;8.90;;;6.32;;
17253;SDS011;32542;52.832;13.816;2023-06-22T05:46:14;6.95;;;5.70;;
17253;SDS011;32542;52.832;13.816;2023-06-22T05:49:17;6.45;;;5.85;;
17253;SDS011;32542;52.832;13.816;2023-06-22T05:52:21;8.35;;;5.57;;
17253;SDS011;32542;52.832;13.816;2023-06-22T05:55:24;6.30;;;5.40;;
17253;SDS011;32542;52.832;13.816;2023-06-22T05:58:27;6.63;;;4.95;;
17253;SDS011;32542;52.832;13.816;2023-06-22T06:01:30;8.23;;;5.53;;
17253;SDS011;32542;52.832;13.816;2023-06-22T06:04:37;7.10;;;4.78;;
17253;SDS011;32542;52.832;13.816;2023-06-22T06:07:41;7.63;;;4.85;;
17253;SDS011;32542;52.832;13.816;2023-06-22T06:10:44;6.38;;;4.63;;
17253;SDS011;32542;52.832;13.816;2023-06-22T06:13:47;8.77;;;4.65;;
17253;SDS011;32542;52.832;13.816;2023-06-22T06:16:51;10.77;;;4.85;;
17253;SDS011;32542;52.832;13.816;2023-06-22T06:19:53;8.65;;;4.85;;
17253;SDS011;32542;52.832;13.816;2023-06-22T06:22:58;6.75;;;4.28;;
17253;SDS011;32542;52.832;13.816;2023-06-22T06:26:01;6.38;;;4.22;;
17253;SDS011;32542;52.832;13.816;2023-06-22T06:29:07;10.10;;;3.88;;
17253;SDS011;32542;52.832;13.816;2023-06-22T06:32:10;10.35;;;4.10;;
17253;SDS011;32542;52.832;13.816;2023-06-22T06:35:14;6.93;;;4.13;;
17253;SDS011;32542;52.832;13.816;2023-06-22T06:38:19;10.43;;;4.15;;
17253;SDS011;32542;52.832;13.816;2023-06-22T06:41:22;5.30;;;3.75;;
17253;SDS011;32542;52.832;13.816;2023-06-22T06:44:25;7.40;;;3.95;;
17253;SDS011;32542;52.832;13.816;2023-06-22T06:47:29;8.88;;;3.67;;
17253;SDS011;32542;52.832;13.816;2023-06-22T06:50:32;7.70;;;3.70;;
17253;SDS011;32542;52.832;13.816;2023-06-22T06:53:37;7.35;;;3.28;;
17253;SDS011;32542;52.832;13.816;2023-06-22T06:56:44;5.45;;;3.28;;
17253;SDS011;32542;52.832;13.816;2023-06-22T06:59:49;3.78;;;3.08;;
17253;SDS011;32542;52.832;13.816;2023-06-22T07:02:52;8.27;;;3.20;;
17253;SDS011;32542;52.832;13.816;2023-06-22T07:05:55;7.72;;;3.60;;
17253;SDS011;32542;52.832;13.816;2023-06-22T07:08:59;3.97;;;3.30;;
17253;SDS011;32542;52.832;13.816;2023-06-22T07:12:03;4.97;;;3.10;;
17253;SDS011;32542;52.832;13.816;2023-06-22T07:15:07;6.30;;;3.00;;
17253;SDS011;32542;52.832;13.816;2023-06-22T07:18:11;5.13;;;3.08;;
17253;SDS011;32542;52.832;13.816;2023-06-22T07:21:14;4.68;;;2.88;;
17253;SDS011;32542;52.832;13.816;2023-06-22T07:24:18;5.85;;;3.00;;
17253;SDS011;32542;52.832;13.816;2023-06-22T07:27:21;3.88;;;2.30;;
17253;SDS011;32542;52.832;13.816;2023-06-22T07:30:24;5.15;;;2.67;;
17253;SDS011;32542;52.832;13.816;2023-06-22T07:33:28;3.38;;;2.50;;
17253;SDS011;32542;52.832;13.816;2023-06-22T07:36:31;3.65;;;2.40;;
17253;SDS011;32542;52.832;13.816;2023-06-22T07:39:37;4.10;;;2.80;;
17253;SDS011;32542;52.832;13.816;2023-06-22T07:42:40;6.53;;;3.10;;
17253;SDS011;32542;52.832;13.816;2023-06-22T07:45:47;4.45;;;2.58;;
17253;SDS011;32542;52.832;13.816;2023-06-22T07:48:53;7.20;;;2.47;;
17253;SDS011;32542;52.832;13.816;2023-06-22T07:51:57;3.97;;;2.10;;
17253;SDS011;32542;52.832;13.816;2023-06-22T07:55:01;4.97;;;2.28;;
17253;SDS011;32542;52.832;13.816;2023-06-22T07:58:04;3.13;;;2.33;;
17253;SDS011;32542;52.832;13.816;2023-06-22T08:01:07;5.57;;;2.20;;
17253;SDS011;32542;52.832;13.816;2023-06-22T08:04:11;5.53;;;2.33;;
17253;SDS011;32542;52.832;13.816;2023-06-22T08:07:14;3.35;;;2.03;;
17253;SDS011;32542;52.832;13.816;2023-06-22T08:10:18;3.70;;;2.25;;
17253;SDS011;32542;52.832;13.816;2023-06-22T08:13:22;3.53;;;2.13;;
17253;SDS011;32542;52.832;13.816;2023-06-22T08:16:24;4.90;;;2.00;;
17253;SDS011;32542;52.832;13.816;2023-06-22T08:19:27;4.47;;;2.15;;
17253;SDS011;32542;52.832;13.816;2023-06-22T08:22:30;3.30;;;1.92;;
17253;SDS011;32542;52.832;13.816;2023-06-22T08:25:36;9.27;;;3.15;;
17253;SDS011;32542;52.832;13.816;2023-06-22T08:28:39;5.90;;;2.20;;
17253;SDS011;32542;52.832;13.816;2023-06-22T08:31:41;4.35;;;2.10;;
17253;SDS011;32542;52.832;13.816;2023-06-22T08:34:49;3.28;;;2.10;;
17253;SDS011;32542;52.832;13.816;2023-06-22T08:37:52;4.88;;;2.30;;
17253;SDS011;32542;52.832;13.816;2023-06-22T08:40:57;6.40;;;2.53;;
17253;SDS011;32542;52.832;13.816;2023-06-22T08:43:59;6.28;;;2.78;;
17253;SDS011;32542;52.832;13.816;2023-06-22T08:47:02;4.45;;;2.50;;
17253;SDS011;32542;52.832;13.816;2023-06-22T08:50:06;11.63;;;2.63;;
17253;SDS011;32542;52.832;13.816;2023-06-22T08:53:10;4.85;;;2.50;;
17253;SDS011;32542;52.832;13.816;2023-06-22T08:56:14;3.22;;;2.22;;
17253;SDS011;32542;52.832;13.816;2023-06-22T08:59:17;3.65;;;2.45;;
17253;SDS011;32542;52.832;13.816;2023-06-22T09:02:20;4.47;;;2.70;;
17253;SDS011;32542;52.832;13.816;2023-06-22T09:05:23;4.53;;;2.70;;
17253;SDS011;32542;52.832;13.816;2023-06-22T09:08:26;3.40;;;2.65;;
17253;SDS011;32542;52.832;13.816;2023-06-22T09:11:31;3.72;;;2.65;;
17253;SDS011;32542;52.832;13.816;2023-06-22T09:14:34;5.10;;;2.63;;
17253;SDS011;32542;52.832;13.816;2023-06-22T09:17:37;11.05;;;2.92;;
17253;SDS011;32542;52.832;13.816;2023-06-22T09:20:41;18.33;;;3.08;;
17253;SDS011;32542;52.832;13.816;2023-06-22T09:23:44;14.40;;;3.08;;
17253;SDS011;32542;52.832;13.816;2023-06-22T09:26:52;15.90;;;2.83;;
17253;SDS011;32542;52.832;13.816;2023-06-22T09:29:55;5.65;;;2.72;;
17253;SDS011;32542;52.832;13.816;2023-06-22T09:32:59;9.27;;;2.97;;
17253;SDS011;32542;52.832;13.816;2023-06-22T09:36:04;7.80;;;2.80;;
17253;SDS011;32542;52.832;13.816;2023-06-22T09:39:08;8.80;;;2.83;;
17253;SDS011;32542;52.832;13.816;2023-06-22T09:42:12;5.95;;;2.90;;
17253;SDS011;32542;52.832;13.816;2023-06-22T09:45:15;4.85;;;2.42;;
17253;SDS011;32542;52.832;13.816;2023-06-22T09:48:18;3.78;;;2.47;;
17253;SDS011;32542;52.832;13.816;2023-06-22T09:51:21;4.20;;;2.53;;
17253;SDS011;32542;52.832;13.816;2023-06-22T09:54:25;6.45;;;2.92;;
17253;SDS011;32542;52.832;13.816;2023-06-22T09:57:29;4.40;;;2.78;;
17253;SDS011;32542;52.832;13.816;2023-06-22T10:00:33;4.68;;;2.83;;
17253;SDS011;32542;52.832;13.816;2023-06-22T10:03:36;5.82;;;2.97;;
17253;SDS011;32542;52.832;13.816;2023-06-22T10:06:40;3.78;;;2.72;;
17253;SDS011;32542;52.832;13.816;2023-06-22T10:09:43;4.55;;;2.90;;
17253;SDS011;32542;52.832;13.816;2023-06-22T10:12:48;3.97;;;2.70;;
17253;SDS011;32542;52.832;13.816;2023-06-22T10:15:58;4.97;;;2.75;;
17253;SDS011;32542;52.832;13.816;2023-06-22T10:19:01;5.85;;;2.88;;
17253;SDS011;32542;52.832;13.816;2023-06-22T10:22:04;4.97;;;3.10;;
17253;SDS011;32542;52.832;13.816;2023-06-22T10:25:07;7.07;;;3.47;;
17253;SDS011;32542;52.832;13.816;2023-06-22T10:28:12;8.77;;;3.75;;
17253;SDS011;32542;52.832;13.816;2023-06-22T10:31:15;6.32;;;3.15;;
17253;SDS011;32542;52.832;13.816;2023-06-22T10:34:18;4.60;;;3.20;;
17253;SDS011;32542;52.832;13.816;2023-06-22T10:37:21;5.03;;;3.15;;
17253;SDS011;32542;52.832;13.816;2023-06-22T10:40:24;5.53;;;3.17;;
17253;SDS011;32542;52.832;13.816;2023-06-22T10:43:28;16.00;;;6.10;;
17253;SDS011;32542;52.832;13.816;2023-06-22T10:46:31;10.00;;;4.40;;
17253;SDS011;32542;52.832;13.816;2023-06-22T10:49:34;11.80;;;6.18;;
17253;SDS011;32542;52.832;13.816;2023-06-22T10:52:37;11.27;;;3.92;;
17253;SDS011;32542;52.832;13.816;2023-06-22T10:55:40;10.90;;;4.57;;
17253;SDS011;32542;52.832;13.816;2023-06-22T10:58:59;6.07;;;4.03;;
17253;SDS011;32542;52.832;13.816;2023-06-22T11:02:03;8.07;;;3.95;;
17253;SDS011;32542;52.832;13.816;2023-06-22T11:05:06;8.57;;;4.30;;
17253;SDS011;32542;52.832;13.816;2023-06-22T11:08:10;8.50;;;3.80;;
17253;SDS011;32542;52.832;13.816;2023-06-22T11:11:13;6.03;;;3.75;;
17253;SDS011;32542;52.832;13.816;2023-06-22T11:14:17;6.07;;;3.70;;
17253;SDS011;32542;52.832;13.816;2023-06-22T11:17:20;6.85;;;3.88;;
17253;SDS011;32542;52.832;13.816;2023-06-22T11:20:23;4.72;;;3.65;;
17253;SDS011;32542;52.832;13.816;2023-06-22T11:23:26;4.88;;;3.72;;
17253;SDS011;32542;52.832;13.816;2023-06-22T11:26:29;7.25;;;4.10;;
17253;SDS011;32542;52.832;13.816;2023-06-22T11:29:34;9.45;;;4.18;;
17253;SDS011;32542;52.832;13.816;2023-06-22T11:32:39;6.95;;;3.85;;
17253;SDS011;32542;52.832;13.816;2023-06-22T11:35:42;13.13;;;4.35;;
17253;SDS011;32542;52.832;13.816;2023-06-22T11:38:45;9.93;;;4.05;;
17253;SDS011;32542;52.832;13.816;2023-06-22T11:41:48;13.38;;;4.50;;
17253;SDS011;32542;52.832;13.816;2023-06-22T11:44:52;8.07;;;4.13;;
17253;SDS011;32542;52.832;13.816;2023-06-22T11:47:57;7.50;;;3.90;;
17253;SDS011;32542;52.832;13.816;2023-06-22T11:51:00;9.30;;;4.40;;
17253;SDS011;32542;52.832;13.816;2023-06-22T11:54:04;11.63;;;4.65;;
17253;SDS011;32542;52.832;13.816;2023-06-22T11:57:07;9.35;;;4.05;;
17253;SDS011;32542;52.832;13.816;2023-06-22T12:00:12;10.80;;;4.13;;
17253;SDS011;32542;52.832;13.816;2023-06-22T12:03:19;13.80;;;4.28;;
17253;SDS011;32542;52.832;13.816;2023-06-22T12:06:23;11.02;;;5.32;;
17253;SDS011;32542;52.832;13.816;2023-06-22T12:09:26;9.50;;;4.60;;
17253;SDS011;32542;52.832;13.816;2023-06-22T12:12:29;11.45;;;4.38;;
17253;SDS011;32542;52.832;13.816;2023-06-22T12:15:33;7.80;;;4.63;;
17253;SDS011;32542;52.832;13.816;2023-06-22T12:18:36;10.75;;;5.40;;
17253;SDS011;32542;52.832;13.816;2023-06-22T12:21:39;6.32;;;4.50;;
17253;SDS011;32542;52.832;13.816;2023-06-22T12:24:42;6.55;;;4.63;;
17253;SDS011;32542;52.832;13.816;2023-06-22T12:27:45;8.02;;;4.70;;
17253;SDS011;32542;52.832;13.816;2023-06-22T12:30:50;4.80;;;3.97;;
17253;SDS011;32542;52.832;13.816;2023-06-22T12:33:53;7.63;;;4.40;;
17253;SDS011;32542;52.832;13.816;2023-06-22T12:36:55;8.88;;;4.88;;
17253;SDS011;32542;52.832;13.816;2023-06-22T12:39:58;10.88;;;4.20;;
17253;SDS011;32542;52.832;13.816;2023-06-22T12:43:01;7.43;;;4.57;;
17253;SDS011;32542;52.832;13.816;2023-06-22T12:46:05;6.72;;;4.50;;
17253;SDS011;32542;52.832;13.816;2023-06-22T12:49:08;4.80;;;3.60;;
17253;SDS011;32542;52.832;13.816;2023-06-22T12:52:11;9.98;;;4.15;;
17253;SDS011;32542;52.832;13.816;2023-06-22T12:55:14;5.40;;;4.20;;
17253;SDS011;32542;52.832;13.816;2023-06-22T12:58:17;9.90;;;3.78;;
17253;SDS011;32542;52.832;13.816;2023-06-22T13:01:22;5.15;;;3.97;;
17253;SDS011;32542;52.832;13.816;2023-06-22T13:04:25;7.05;;;3.90;;
17253;SDS011;32542;52.832;13.816;2023-06-22T13:07:28;8.00;;;4.28;;
17253;SDS011;32542;52.832;13.816;2023-06-22T13:10:31;6.05;;;4.07;;
17253;SDS011;32542;52.832;13.816;2023-06-22T13:13:34;4.80;;;3.90;;
17253;SDS011;32542;52.832;13.816;2023-06-22T13:16:38;5.03;;;4.10;;
17253;SDS011;32542;52.832;13.816;2023-06-22T13:19:41;6.47;;;4.10;;
17253;SDS011;32542;52.832;13.816;2023-06-22T13:22:44;5.65;;;3.80;;
17253;SDS011;32542;52.832;13.816;2023-06-22T13:25:47;5.95;;;4.55;;
17253;SDS011;32542;52.832;13.816;2023-06-22T13:28:50;6.85;;;4.53;;
17253;SDS011;32542;52.832;13.816;2023-06-22T13:31:54;4.88;;;3.70;;
17253;SDS011;32542;52.832;13.816;2023-06-22T13:34:58;6.55;;;4.05;;
17253;SDS011;32542;52.832;13.816;2023-06-22T13:38:01;5.18;;;4.10;;
17253;SDS011;32542;52.832;13.816;2023-06-22T13:41:04;8.38;;;4.13;;
17253;SDS011;32542;52.832;13.816;2023-06-22T13:44:07;4.38;;;3.80;;
17253;SDS011;32542;52.832;13.816;2023-06-22T13:47:11;4.45;;;3.67;;
17253;SDS011;32542;52.832;13.816;2023-06-22T13:50:14;5.50;;;3.78;;
17253;SDS011;32542;52.832;13.816;2023-06-22T13:53:17;6.78;;;4.53;;
17253;SDS011;32542;52.832;13.816;2023-06-22T13:56:20;6.50;;;4.10;;
17253;SDS011;32542;52.832;13.816;2023-06-22T13:59:23;6.10;;;4.20;;
17253;SDS011;32542;52.832;13.816;2023-06-22T14:02:29;7.18;;;4.47;;
17253;SDS011;32542;52.832;13.816;2023-06-22T14:05:32;7.30;;;3.72;;
17253;SDS011;32542;52.832;13.816;2023-06-22T14:08:36;8.10;;;4.30;;
17253;SDS011;32542;52.832;13.816;2023-06-22T14:11:42;4.68;;;4.05;;
17253;SDS011;32542;52.832;13.816;2023-06-22T14:14:45;7.18;;;4.00;;
17253;SDS011;32542;52.832;13.816;2023-06-22T14:17:49;6.85;;;4.32;;
17253;SDS011;32542;52.832;13.816;2023-06-22T14:20:52;4.72;;;4.10;;
17253;SDS011;32542;52.832;13.816;2023-06-22T14:23:55;4.88;;;3.80;;
17253;SDS011;32542;52.832;13.816;2023-06-22T14:26:58;5.85;;;4.10;;
17253;SDS011;32542;52.832;13.816;2023-06-22T14:30:04;6.03;;;4.15;;
17253;SDS011;32542;52.832;13.816;2023-06-22T14:33:09;6.05;;;3.67;;
17253;SDS011;32542;52.832;13.816;2023-06-22T14:36:13;5.85;;;4.15;;
17253;SDS011;32542;52.832;13.816;2023-06-22T14:39:21;5.93;;;3.67;;
17253;SDS011;32542;52.832;13.816;2023-06-22T14:42:23;5.10;;;4.03;;
17253;SDS011;32542;52.832;13.816;2023-06-22T14:45:28;5.50;;;4.18;;
17253;SDS011;32542;52.832;13.816;2023-06-22T14:48:32;5.13;;;4.47;;
17253;SDS011;32542;52.832;13.816;2023-06-22T14:51:36;5.60;;;4.00;;
17253;SDS011;32542;52.832;13.816;2023-06-22T14:54:39;8.95;;;4.30;;
17253;SDS011;32542;52.832;13.816;2023-06-22T14:57:42;10.57;;;4.70;;
17253;SDS011;32542;52.832;13.816;2023-06-22T15:00:44;6.25;;;4.47;;
17253;SDS011;32542;52.832;13.816;2023-06-22T15:03:49;7.15;;;4.97;;
17253;SDS011;32542;52.832;13.816;2023-06-22T15:06:52;8.07;;;4.85;;
17253;SDS011;32542;52.832;13.816;2023-06-22T15:09:55;7.15;;;4.75;;
17253;SDS011;32542;52.832;13.816;2023-06-22T15:12:58;6.25;;;4.82;;
17253;SDS011;32542;52.832;13.816;2023-06-22T15:16:00;10.70;;;5.30;;
17253;SDS011;32542;52.832;13.816;2023-06-22T15:19:06;9.80;;;5.70;;
17253;SDS011;32542;52.832;13.816;2023-06-22T15:22:09;6.60;;;5.13;;
17253;SDS011;32542;52.832;13.816;2023-06-22T15:25:12;6.97;;;5.10;;
17253;SDS011;32542;52.832;13.816;2023-06-22T15:28:14;6.20;;;5.00;;
17253;SDS011;32542;52.832;13.816;2023-06-22T15:31:17;6.97;;;5.07;;
17253;SDS011;32542;52.832;13.816;2023-06-22T15:34:22;5.82;;;4.72;;
17253;SDS011;32542;52.832;13.816;2023-06-22T15:37:24;6.72;;;5.38;;
17253;SDS011;32542;52.832;13.816;2023-06-22T15:40:27;6.18;;;5.30;;
17253;SDS011;32542;52.832;13.816;2023-06-22T15:43:31;9.63;;;5.53;;
17253;SDS011;32542;52.832;13.816;2023-06-22T15:46:34;8.13;;;5.32;;
17253;SDS011;32542;52.832;13.816;2023-06-22T15:49:38;7.70;;;5.75;;
17253;SDS011;32542;52.832;13.816;2023-06-22T15:52:41;10.55;;;5.75;;
17253;SDS011;32542;52.832;13.816;2023-06-22T15:55:48;10.88;;;5.40;;
17253;SDS011;32542;52.832;13.816;2023-06-22T15:58:51;7.25;;;5.30;;
17253;SDS011;32542;52.832;13.816;2023-06-22T16:01:55;7.65;;;5.75;;
17253;SDS011;32542;52.832;13.816;2023-06-22T16:04:59;7.30;;;5.82;;
17253;SDS011;32542;52.832;13.816;2023-06-22T16:08:03;6.32;;;5.43;;
17253;SDS011;32542;52.832;13.816;2023-06-22T16:11:12;7.80;;;5.50;;
17253;SDS011;32542;52.832;13.816;2023-06-22T16:14:15;7.80;;;5.50;;
17253;SDS011;32542;52.832;13.816;2023-06-22T16:17:18;7.00;;;5.90;;
17253;SDS011;32542;52.832;13.816;2023-06-22T16:20:23;7.03;;;5.82;;
17253;SDS011;32542;52.832;13.816;2023-06-22T16:23:25;6.72;;;5.47;;
17253;SDS011;32542;52.832;13.816;2023-06-22T16:26:29;6.43;;;5.57;;
17253;SDS011;32542;52.832;13.816;2023-06-22T16:29:32;6.55;;;5.60;;
17253;SDS011;32542;52.832;13.816;2023-06-22T16:32:35;11.13;;;5.90;;
17253;SDS011;32542;52.832;13.816;2023-06-22T16:35:39;6.95;;;5.68;;
17253;SDS011;32542;52.832;13.816;2023-06-22T16:38:43;8.45;;;5.38;;
17253;SDS011;32542;52.832;13.816;2023-06-22T16:41:45;7.55;;;5.50;;
17253;SDS011;32542;52.832;13.816;2023-06-22T16:44:48;11.73;;;5.50;;
17253;SDS011;32542;52.832;13.816;2023-06-22T16:47:51;7.82;;;5.20;;
17253;SDS011;32542;52.832;13.816;2023-06-22T16:50:56;6.05;;;4.95;;
17253;SDS011;32542;52.832;13.816;2023-06-22T16:53:59;8.13;;;4.97;;
17253;SDS011;32542;52.832;13.816;2023-06-22T16:57:02;11.85;;;5.32;;
17253;SDS011;32542;52.832;13.816;2023-06-22T17:00:07;6.28;;;5.40;;
17253;SDS011;32542;52.832;13.816;2023-06-22T17:03:13;8.30;;;6.05;;
17253;SDS011;32542;52.832;13.816;2023-06-22T17:06:23;8.20;;;5.70;;
17253;SDS011;32542;52.832;13.816;2023-06-22T17:09:26;6.70;;;5.47;;
17253;SDS011;32542;52.832;13.816;2023-06-22T17:12:29;6.57;;;5.35;;
17253;SDS011;32542;52.832;13.816;2023-06-22T17:15:33;7.28;;;5.70;;
17253;SDS011;32542;52.832;13.816;2023-06-22T17:18:37;7.05;;;4.90;;
17253;SDS011;32542;52.832;13.816;2023-06-22T17:21:43;7.25;;;5.35;;
17253;SDS011;32542;52.832;13.816;2023-06-22T17:24:48;7.10;;;5.10;;
17253;SDS011;32542;52.832;13.816;2023-06-22T17:27:57;5.70;;;5.07;;
17253;SDS011;32542;52.832;13.816;2023-06-22T17:31:10;7.40;;;4.80;;
17253;SDS011;32542;52.832;13.816;2023-06-22T17:34:14;6.63;;;4.82;;
17253;SDS011;32542;52.832;13.816;2023-06-22T17:37:19;5.57;;;4.82;;
17253;SDS011;32542;52.832;13.816;2023-06-22T17:40:22;5.88;;;4.40;;
17253;SDS011;32542;52.832;13.816;2023-06-22T17:43:27;6.47;;;4.93;;
17253;SDS011;32542;52.832;13.816;2023-06-22T17:46:33;7.68;;;5.07;;
17253;SDS011;32542;52.832;13.816;2023-06-22T17:49:36;7.03;;;5.10;;
17253;SDS011;32542;52.832;13.816;2023-06-22T17:52:42;6.72;;;5.20;;
17253;SDS011;32542;52.832;13.816;2023-06-22T17:55:52;5.00;;;4.53;;
17253;SDS011;32542;52.832;13.816;2023-06-22T17:58:55;5.53;;;4.40;;
17253;SDS011;32542;52.832;13.816;2023-06-22T18:02:05;5.82;;;4.50;;
17253;SDS011;32542;52.832;13.816;2023-06-22T18:05:10;4.78;;;4.28;;
17253;SDS011;32542;52.832;13.816;2023-06-22T18:08:14;7.88;;;4.68;;
17253;SDS011;32542;52.832;13.816;2023-06-22T18:11:20;5.13;;;4.63;;